Latest Weather Observations for Horsham

IDV60801

Issued at 8:52 am EST Thursday 1 October 2020 (issued every 10 minutes, with the page automatically refreshed every 10 minutes)

About weather observations | Map of weather stations | Latest weather observations for VIC | Other Formats
Station Details ID: 079100 Name: HORSHAM AERODROME Lat: -36.67 Lon: 142.17 Height: 133.8 m
Data from the previous 72 hours. | See also: Recent months at Horsham
Date/Time
EST
Temp
°C
App
Temp
°C
Dew
Point
°C
Rel
Hum
%
Delta-T
°C
Wind Press
QNH
hPa
Press
MSL
hPa
Rain since
9am
mm
Dir  Spd
km/h
Gust
km/h
Spd
kts
Gust
kts
01/08:30am 9.4 6.4 9.1 98 0.1 NW 15 19 8 10 1017.9 1018.0 1.6
01/08:00am 8.0 5.4 7.9 99 0.0 NW 11 15 6 8 1017.5 1017.6 1.6
01/07:30am 6.1 3.9 6.0 99 0.0 NW 7 11 4 6 1017.3 1017.4 1.6
01/07:00am 2.5 -0.8 2.4 99 0.0 NW 9 11 5 6 1017.0 1017.1 1.6
01/06:30am 1.9 -1.2 1.6 98 0.1 NW 7 9 4 5 1016.7 1016.8 1.6
01/06:00am 2.7 -0.6 2.4 98 0.1 WNW 9 11 5 6 1016.2 1016.3 1.6
01/05:30am 2.4 -1.3 2.1 98 0.1 WNW 11 13 6 7 1015.7 1015.8 1.6
01/05:00am 2.3 -1.5 2.0 98 0.1 WNW 11 13 6 7 1015.4 1015.5 1.6
01/04:30am 2.9 -0.4 2.6 98 0.1 WNW 9 11 5 6 1014.9 1015.0 1.6
01/04:00am 3.4 0.8 3.0 97 0.2 W 6 9 3 5 1014.8 1014.9 1.6
01/03:30am 4.7 1.8 4.4 98 0.1 W 9 11 5 6 1014.6 1014.7 1.6
01/03:00am 5.6 2.1 5.3 98 0.1 W 13 15 7 8 1014.4 1014.4 1.6
01/02:30am 4.8 1.1 4.5 98 0.1 WNW 13 15 7 8 1014.4 1014.4 1.4
01/02:00am 5.4 2.2 5.3 99 0.0 W 11 15 6 8 1014.4 1014.4 1.4
01/01:45am 4.5 1.1 4.2 98 0.1 WNW 11 13 6 7 1014.4 1014.4 1.4
01/01:30am 4.7 1.4 4.4 98 0.1 WNW 11 13 6 7 1014.5 1014.6 1.4
01/01:07am 4.2 0.8 3.8 97 0.2 WNW 11 11 6 6 1014.5 1014.6 1.4
01/01:00am 4.6 1.2 4.2 97 0.2 WNW 11 13 6 7 1014.5 1014.6 1.4
01/12:30am 5.8 1.9 5.4 97 0.2 WNW 15 15 8 8 1014.2 1014.2 1.4
01/12:00am 5.8 2.3 5.4 97 0.2 WNW 13 15 7 8 1014.0 1014.0 1.4
 
Date/Time
EST
Temp
°C
App
Temp
°C
Dew
Point
°C
Rel
Hum
%
Delta-T
°C
Wind Press
QNH
hPa
Press
MSL
hPa
Rain since
9am
mm
Dir  Spd
km/h
Gust
km/h
Spd
kts
Gust
kts
30/11:30pm 6.0 2.5 5.4 96 0.3 WNW 13 13 7 7 1013.8 1013.8 1.4
30/11:00pm 6.6 2.8 5.9 95 0.3 WNW 15 15 8 8 1013.6 1013.6 1.4
30/10:30pm 7.9 4.7 7.0 94 0.4 W 13 17 7 9 1013.3 1013.4 1.4
30/10:00pm 9.1 5.8 8.0 93 0.5 W 15 19 8 10 1013.2 1013.3 1.4
30/09:30pm 9.9 6.4 8.8 93 0.5 W 17 20 9 11 1013.0 1013.1 1.4
30/09:00pm 10.6 7.3 9.7 94 0.5 W 17 22 9 12 1012.7 1012.8 1.4
30/08:30pm 10.9 8.5 10.0 94 0.5 W 13 15 7 8 1011.9 1012.0 1.4
30/08:00pm 11.4 8.7 10.5 94 0.5 W 15 20 8 11 1011.8 1011.9 1.4
30/07:30pm 11.7 8.7 10.8 94 0.5 W 17 24 9 13 1011.1 1011.2 1.4
30/07:12pm 11.9 7.7 11.0 94 0.5 W 24 28 13 15 1010.7 1010.8 1.4
30/07:00pm 12.3 8.6 11.5 95 0.4 W 22 35 12 19 1010.7 1010.8 1.4
30/06:56pm 12.3 9.0 11.5 95 0.4 WNW 20 35 11 19 1010.6 1010.7 1.2
30/06:30pm 12.2 8.1 11.3 94 0.5 NW 24 28 13 15 1009.9 1010.0 0.6
30/06:00pm 12.4 7.7 10.5 88 1.0 WNW 26 32 14 17 1009.5 1009.6 0.4
30/05:30pm 13.1 9.0 10.1 82 1.6 WNW 22 37 12 20 1009.5 1009.6 0.2
30/05:00pm 14.6 8.9 8.5 67 3.1 WNW 28 39 15 21 1009.1 1009.2 0.0
30/04:30pm 15.0 10.9 8.7 66 3.2 WNW 20 24 11 13 1008.7 1008.8 0.0
30/04:00pm 15.4 10.5 8.4 63 3.6 WNW 24 35 13 19 1009.0 1009.1 0.0
30/03:30pm 15.1 8.9 7.9 62 3.6 W 30 37 16 20 1009.2 1009.3 0.0
30/03:00pm 15.2 9.6 10.0 71 2.7 W 30 39 16 21 1009.1 1009.2 0.0
30/02:30pm 14.5 9.7 11.7 83 1.5 WNW 28 39 15 21 1009.1 1009.2 0.0
30/02:00pm 15.1 8.4 11.1 77 2.1 WNW 37 46 20 25 1009.1 1009.2 0.0
30/01:30pm 16.3 11.3 12.3 77 2.2 WNW 30 37 16 20 1008.8 1008.9 0.0
30/01:26pm 16.2 11.3 12.6 79 2.0 WNW 30 37 16 20 1008.8 1008.9 0.0
30/01:14pm 16.3 12.3 14.1 87 1.3 WNW 28 35 15 19 1008.9 1009.0 0.0
30/01:00pm 15.3 12.4 14.0 92 0.7 NW 22 32 12 17 1009.0 1009.1 0.0
30/12:30pm 16.2 13.2 13.7 85 1.4 NW 22 28 12 15 1009.1 1009.2 0.0
30/12:00pm 16.3 12.1 11.0 71 2.9 NNW 24 33 13 18 1009.2 1009.3 0.0
30/11:30am 16.8 13.8 12.7 77 2.3 NW 20 26 11 14 1009.8 1009.9 0.0
30/11:00am 15.6 11.7 12.2 80 1.9 N 24 32 13 17 1010.3 1010.4 0.0
30/10:30am 16.0 11.9 12.6 80 1.9 NNW 26 32 14 17 1010.5 1010.6 0.0
30/10:00am 14.3 9.5 11.8 85 1.4 NNW 28 35 15 19 1011.2 1011.3 0.0
30/09:57am 14.1 9.3 11.6 85 1.3 NNW 28 35 15 19 1011.2 1011.3 0.0
30/09:30am 13.9 10.3 13.1 95 0.4 NNW 24 30 13 16 1011.3 1011.4 0.0
30/09:28am 14.0 10.8 13.2 95 0.4 NNW 22 28 12 15 1011.4 1011.5 0.0
30/09:09am 13.2 10.3 12.9 98 0.2 NNW 20 26 11 14 1011.5 1011.6 0.0
30/09:00am 13.3 10.5 13.1 99 0.1 N 20 26 11 14 1011.5 1011.6 0.6
30/08:54am 12.9 9.6 12.7 99 0.1 NNW 22 28 12 15 1011.6 1011.7 0.6
30/08:34am 12.7 8.9 12.5 99 0.1 NNW 24 32 13 17 1011.7 1011.8 0.4
30/08:30am 12.6 9.2 12.4 99 0.1 NNW 22 32 12 17 1011.7 1011.8 0.4
30/08:28am 12.8 9.4 12.6 99 0.1 NNW 22 28 12 15 1011.7 1011.8 0.4
30/08:26am 12.7 9.3 12.5 99 0.1 NNW 22 28 12 15 1011.7 1011.8 0.4
30/08:12am 12.5 8.7 12.3 99 0.1 N 24 32 13 17 1011.6 1011.7 0.4
30/08:00am 12.6 9.6 12.4 99 0.1 N 20 28 11 15 1011.5 1011.6 0.4
30/07:59am 12.5 9.4 12.3 99 0.1 N 20 28 11 15 1011.5 1011.6 0.4
30/07:42am 12.1 8.5 11.9 99 0.1 N 22 28 12 15 1011.4 1011.5 0.4
30/07:30am 11.9 8.6 11.7 99 0.1 N 20 26 11 14 1011.4 1011.5 0.4
30/07:11am 11.8 9.1 11.6 99 0.1 N 17 22 9 12 1011.4 1011.5 0.4
30/07:00am 11.7 8.6 11.5 99 0.1 N 19 26 10 14 1011.4 1011.5 0.4
30/06:30am 11.4 8.2 11.2 99 0.1 N 19 22 10 12 1011.3 1011.4 0.4
30/06:19am 11.2 8.3 11.0 99 0.1 NNE 17 20 9 11 1011.2 1011.3 0.4
30/06:00am 11.1 8.9 10.8 98 0.2 NNE 13 17 7 9 1011.2 1011.3 0.4
30/05:30am 11.1 8.9 10.8 98 0.2 N 13 17 7 9 1011.3 1011.4 0.4
30/05:19am 11.1 8.5 10.6 97 0.3 N 15 17 8 9 1011.3 1011.4 0.2
30/05:00am 11.1 8.8 10.5 96 0.3 N 13 15 7 8 1011.4 1011.5 0.2
30/04:34am 11.2 8.1 10.3 94 0.5 N 17 26 9 14 1011.5 1011.6 0.2
30/04:30am 11.2 8.9 10.3 94 0.5 N 13 26 7 14 1011.5 1011.6 0.0
30/04:00am 11.0 8.6 9.9 93 0.6 N 13 15 7 8 1011.5 1011.6 0.0
30/03:30am 10.9 9.5 9.7 92 0.6 NNE 7 9 4 5 1011.5 1011.6 0.0
30/03:00am 10.6 9.2 9.4 92 0.6 N 7 11 4 6 1012.1 1012.2 0.0
30/02:30am 10.5 8.6 9.1 91 0.7 N 9 13 5 7 1012.4 1012.5 0.0
30/02:00am 10.8 8.5 8.9 88 0.9 NE 11 13 6 7 1012.9 1013.0 0.0
30/01:30am 10.6 8.5 8.4 86 1.1 ENE 9 13 5 7 1013.0 1013.1 0.0
30/01:00am 10.6 9.7 7.8 83 1.4 W 2 7 1 4 1013.2 1013.3 0.0
30/12:30am 11.3 10.4 7.6 78 1.8 W 2 6 1 3 1013.4 1013.5 0.0
30/12:00am 10.7 8.3 6.8 77 1.9 WNW 9 11 5 6 1013.9 1013.9 0.0
 
Date/Time
EST
Temp
°C
App
Temp
°C
Dew
Point
°C
Rel
Hum
%
Delta-T
°C
Wind Press
QNH
hPa
Press
MSL
hPa
Rain since
9am
mm
Dir  Spd
km/h
Gust
km/h
Spd
kts
Gust
kts
29/11:58pm 10.8 8.3 6.7 76 1.9 WNW 9 11 5 6 1013.9 1013.9 0.0
29/11:39pm 11.3 7.6 6.4 72 2.3 NNW 15 17 8 9 1013.9 1013.9 0.0
29/11:30pm 11.8 8.2 6.7 71 2.4 NNW 15 17 8 9 1013.8 1013.8 0.0
29/11:00pm 13.3 8.9 6.4 63 3.3 NNW 19 26 10 14 1013.8 1013.8 0.0
29/10:30pm 13.2 9.2 6.5 64 3.2 N 17 19 9 10 1014.1 1014.1 0.0
29/10:00pm 13.2 8.9 6.8 65 3.1 NNE 19 24 10 13 1014.6 1014.7 0.0
29/09:30pm 12.7 8.9 7.4 70 2.6 NNE 17 20 9 11 1014.7 1014.8 0.0
29/09:00pm 12.9 9.1 7.4 69 2.7 NNE 17 20 9 11 1014.8 1014.9 0.0
29/08:30pm 13.4 9.2 7.4 67 3.0 NE 19 20 10 11 1014.8 1014.9 0.0
29/08:00pm 13.7 9.5 7.5 66 3.1 NE 19 20 10 11 1015.0 1015.1 0.0
29/07:30pm 13.5 9.4 7.7 68 2.9 NE 19 20 10 11 1015.0 1015.1 0.0
29/07:00pm 14.1 10.4 8.1 67 3.0 NE 17 20 9 11 1014.7 1014.8 0.0
29/06:30pm 14.7 10.7 8.2 65 3.3 NE 19 20 10 11 1015.0 1015.1 0.0
29/06:00pm 15.5 11.9 8.5 63 3.6 NE 17 20 9 11 1014.9 1015.0 0.0
29/05:30pm 16.3 12.4 8.5 60 4.0 NE 19 22 10 12 1014.8 1014.9 0.0
29/05:00pm 17.1 13.9 10.0 63 3.8 NE 17 20 9 11 1014.9 1015.0 0.0
29/04:30pm 18.0 14.5 8.8 55 4.8 NNE 17 19 9 10 1015.0 1015.1 0.0
29/04:00pm 18.8 14.6 7.6 48 5.7 NNE 19 28 10 15 1015.3 1015.4 0.0
29/03:30pm 19.2 14.5 7.9 48 5.8 NNE 22 32 12 17 1015.8 1015.9 0.0
29/03:00pm 19.0 13.6 7.8 48 5.8 NNE 26 37 14 20 1016.2 1016.3 0.0
29/02:30pm 19.4 13.6 7.8 47 6.0 NNE 28 35 15 19 1016.7 1016.8 0.0
29/02:00pm 19.2 13.3 7.3 46 6.1 NNE 28 39 15 21 1017.4 1017.5 0.0
29/01:30pm 17.8 12.6 7.2 50 5.4 N 24 33 13 18 1018.3 1018.4 0.0
29/01:00pm 17.7 10.8 6.6 48 5.5 N 32 41 17 22 1019.0 1019.1 0.0
29/12:30pm 17.6 11.1 6.5 48 5.5 N 30 39 16 21 1019.4 1019.5 0.0
29/12:00pm 17.5 10.3 5.8 46 5.7 N 33 43 18 23 1019.8 1019.9 0.0
29/11:30am 17.1 9.6 6.3 49 5.3 NNE 35 43 19 23 1020.1 1020.2 0.0
29/11:00am 16.6 10.7 7.5 55 4.6 NE 28 37 15 20 1020.4 1020.5 0.0
29/10:30am 15.7 9.8 7.7 59 4.0 NNE 28 37 15 20 1021.1 1021.3 0.0
29/10:00am 14.1 8.9 7.4 64 3.3 NNE 24 32 13 17 1021.6 1021.7 0.0
29/09:30am 12.8 8.0 7.3 69 2.7 NE 22 30 12 16 1022.0 1022.1 0.0
29/09:00am 10.8 6.5 7.7 81 1.5 NE 20 26 11 14 1022.4 1022.5 -
29/08:30am 8.6 4.0 6.6 87 0.9 NE 20 24 11 13 1022.3 1022.4 -
29/08:00am 7.5 3.4 6.0 90 0.7 ENE 17 24 9 13 1022.3 1022.4 -
29/07:30am 6.1 1.2 5.1 93 0.4 ENE 20 26 11 14 1022.0 1022.1 -
29/07:00am 4.8 0.7 4.1 95 0.3 ENE 15 20 8 11 1022.2 1022.3 -
29/06:30am 3.1 -1.0 2.2 94 0.4 ENE 13 17 7 9 1022.3 1022.4 -
29/06:00am 2.7 -2.2 1.8 94 0.4 ENE 17 19 9 10 1022.4 1022.5 -
29/05:30am 2.6 -2.0 1.7 94 0.4 ENE 15 19 8 10 1022.6 1022.7 -
29/05:00am 2.6 -1.6 1.9 95 0.3 ENE 13 13 7 7 1022.3 1022.4 -
29/04:30am 2.5 -1.7 1.8 95 0.3 ENE 13 15 7 8 1022.0 1022.1 -
29/04:00am 3.1 -1.0 2.4 95 0.3 ENE 13 15 7 8 1022.0 1022.1 -
29/03:30am 3.7 -0.3 3.0 95 0.3 ENE 13 15 7 8 1022.0 1022.1 -
29/03:00am 4.1 -0.2 3.5 96 0.2 E 15 17 8 9 1022.0 1022.1 0.0
29/02:30am 4.5 0.3 3.9 96 0.3 ESE 15 19 8 10 1022.1 1022.2 -
29/02:00am 3.9 -0.8 3.3 96 0.2 E 17 17 9 9 1022.6 1022.7 -
29/01:30am 3.3 -1.5 2.6 95 0.3 ESE 17 17 9 9 1022.7 1022.8 -
29/01:00am 3.2 -1.7 2.3 94 0.4 ESE 17 17 9 9 1023.2 1023.3 -
29/12:30am 3.5 -0.6 2.5 93 0.4 E 13 15 7 8 1023.8 1023.9 -
29/12:00am 3.6 -0.9 2.4 92 0.5 E 15 17 8 9 1023.8 1023.9 -
 
Date/Time
EST
Temp
°C
App
Temp
°C
Dew
Point
°C
Rel
Hum
%
Delta-T
°C
Wind Press
QNH
hPa
Press
MSL
hPa
Rain since
9am
mm
Dir  Spd
km/h
Gust
km/h
Spd
kts
Gust
kts
28/11:30pm 4.4 -0.7 3.1 91 0.5 ESE 19 20 10 11 1024.0 1024.1 -
28/11:00pm 4.6 -0.5 3.1 90 0.6 ESE 19 20 10 11 1024.1 1024.2 -
28/10:30pm 4.0 -0.8 2.4 89 0.6 ESE 17 19 9 10 1024.3 1024.4 -
28/10:00pm 3.6 -1.4 1.5 86 0.8 ESE 17 19 9 10 1024.0 1024.1 -
28/09:30pm 5.7 2.5 3.0 83 1.1 E 9 11 5 6 1024.5 1024.6 -
28/09:00pm 6.7 3.7 4.0 83 1.2 ENE 9 11 5 6 1024.8 1024.9 0.0
28/08:30pm 6.8 3.5 4.3 84 1.1 ESE 11 13 6 7 1024.5 1024.6 -
28/08:00pm 6.7 3.0 4.4 85 1.0 ESE 13 13 7 7 1024.2 1024.3 -
28/07:30pm 7.3 2.9 4.8 84 1.1 ESE 17 17 9 9 1023.9 1024.0 -
28/07:00pm 7.9 3.9 5.0 82 1.3 ESE 15 17 8 9 1023.9 1024.0 -
28/06:30pm 10.0 6.1 5.4 73 2.1 E 15 15 8 8 1024.0 1024.1 -
28/06:00pm 13.2 9.7 7.0 66 3.0 E 15 17 8 9 1024.1 1024.2 -
28/05:30pm 15.3 12.7 6.1 54 4.5 E 9 15 5 8 1024.2 1024.3 -
28/05:00pm 16.0 12.5 5.3 49 5.1 ENE 13 17 7 9 1024.1 1024.2 -
28/04:30pm 16.4 13.6 5.1 47 5.4 ENE 9 19 5 10 1024.1 1024.2 -
28/04:00pm 16.5 14.1 5.2 47 5.4 NNE 7 15 4 8 1024.3 1024.4 -
28/03:30pm 16.2 13.3 4.9 47 5.4 NE 9 15 5 8 1024.5 1024.6 -
28/03:00pm 16.8 13.7 5.4 47 5.5 NE 11 30 6 16 1024.8 1024.9 -
28/02:30pm 16.2 13.9 4.6 46 5.5 E 6 15 3 8 1025.3 1025.4 -
28/02:00pm 15.6 12.5 5.5 51 4.8 NNE 11 17 6 9 1025.5 1025.6 -
28/01:30pm 15.2 12.2 4.0 47 5.2 N 9 17 5 9 1026.0 1026.1 -
28/01:00pm 14.5 11.6 4.5 51 4.6 N 9 13 5 7 1026.5 1026.6 -

Other formats

Comma delimited format used in spreadsheet applications
http://www.bom.gov.au/fwo/IDV60801/IDV60801.95839.axf

JavaScript Object Notation format (JSON) in row-major order
http://www.bom.gov.au/fwo/IDV60801/IDV60801.95839.json

Data quality

Most of these data are generated automatically and are frequently updated. Quality checks on data are not normally performed. It is possible for incorrect values to appear. Refer to information at About Latest Weather Observations and please check the disclaimer before using these data.